createdAt,value
2023-05-04T00:04:43.105Z,6.32
2023-05-04T00:09:39.552Z,6.28
2023-05-04T00:14:37.331Z,6.36
2023-05-04T00:19:34.859Z,6.35
2023-05-04T00:24:31.242Z,6.32
2023-05-04T00:29:27.660Z,6.26
2023-05-04T00:34:24.045Z,6.13
2023-05-04T00:39:20.470Z,6.07
2023-05-04T00:44:16.865Z,5.98
2023-05-04T00:49:13.491Z,5.96
2023-05-04T00:54:09.906Z,5.92
2023-05-04T00:59:06.339Z,5.84
2023-05-04T01:04:02.911Z,5.74
2023-05-04T01:09:11.151Z,5.69
2023-05-04T01:14:09.976Z,5.73
2023-05-04T01:19:06.389Z,5.77
2023-05-04T01:24:02.842Z,5.68
2023-05-04T01:29:08.869Z,5.60
2023-05-04T01:34:07.400Z,5.53
2023-05-04T01:39:03.986Z,5.46
2023-05-04T01:44:00.378Z,5.42
2023-05-04T01:48:57.809Z,5.34
2023-05-04T01:53:54.250Z,5.32
2023-05-04T01:58:50.729Z,5.31
2023-05-04T02:03:47.234Z,5.30
2023-05-04T02:08:44.016Z,5.28
2023-05-04T02:13:40.575Z,5.25
2023-05-04T02:18:37.311Z,5.19
2023-05-04T02:23:33.672Z,5.19
2023-05-04T02:28:30.102Z,5.17
2023-05-04T02:33:26.585Z,5.09
2023-05-04T02:38:22.989Z,5.09
2023-05-04T02:43:19.359Z,5.04
2023-05-04T02:48:15.745Z,4.99
2023-05-04T02:53:12.128Z,4.94
2023-05-04T02:58:08.541Z,5.07
2023-05-04T03:03:05.042Z,5.01
2023-05-04T03:08:01.434Z,4.93
2023-05-04T03:12:58.250Z,4.99
2023-05-04T03:17:54.649Z,4.99
2023-05-04T03:22:51.124Z,4.96
2023-05-04T03:27:47.504Z,4.92
2023-05-04T03:32:44.841Z,4.91
2023-05-04T03:37:41.451Z,4.88
2023-05-04T03:42:38.141Z,4.91
2023-05-04T03:47:34.579Z,4.91
2023-05-04T03:52:31.023Z,4.85
2023-05-04T03:57:27.417Z,4.91
2023-05-04T04:02:23.869Z,4.87
2023-05-04T04:07:20.589Z,4.83
2023-05-04T04:12:18.423Z,4.88
2023-05-04T04:17:15.342Z,4.91
2023-05-04T04:22:11.716Z,4.91
2023-05-04T04:27:08.175Z,5.04
2023-05-04T04:32:04.797Z,5.13
2023-05-04T04:37:01.205Z,5.22
2023-05-04T04:41:57.594Z,5.38
2023-05-04T04:46:54.022Z,5.52
2023-05-04T04:51:50.454Z,5.68
2023-05-04T04:56:46.831Z,5.90
2023-05-04T05:01:43.160Z,6.04
2023-05-04T05:06:39.506Z,6.18
2023-05-04T05:11:35.874Z,6.37
2023-05-04T05:16:32.761Z,6.63
2023-05-04T05:21:29.857Z,6.83
2023-05-04T05:26:26.214Z,7.08
2023-05-04T05:31:22.770Z,7.22
2023-05-04T05:36:19.182Z,7.39
2023-05-04T05:41:16.138Z,7.50
2023-05-04T05:46:13.577Z,7.71
2023-05-04T05:51:10.059Z,7.88
2023-05-04T05:56:06.689Z,8.12
2023-05-04T06:01:03.571Z,8.32
2023-05-04T06:06:00.023Z,8.48
2023-05-04T06:10:56.420Z,8.64
2023-05-04T06:15:56.095Z,8.82
2023-05-04T06:20:59.290Z,8.70
2023-05-04T06:25:55.633Z,8.92
2023-05-04T06:30:51.973Z,8.97
2023-05-04T06:35:48.333Z,8.99
2023-05-04T06:40:44.878Z,9.25
2023-05-04T06:45:41.382Z,9.57
2023-05-04T06:50:39.416Z,10.15
2023-05-04T06:55:37.067Z,10.68
2023-05-04T07:00:33.604Z,11.39
2023-05-04T07:05:30.069Z,12.36
2023-05-04T07:10:26.537Z,12.60
2023-05-04T07:15:23.040Z,13.16
2023-05-04T07:20:22.972Z,13.55
2023-05-04T07:25:21.616Z,14.14
2023-05-04T07:30:18.020Z,14.79
2023-05-04T07:35:15.087Z,15.19
2023-05-04T07:40:14.041Z,15.50
2023-05-04T07:45:10.761Z,14.63
2023-05-04T07:50:08.098Z,14.35
2023-05-04T07:55:04.852Z,14.67
2023-05-04T08:00:01.717Z,14.18
2023-05-04T08:04:58.197Z,13.56
2023-05-04T08:09:56.110Z,14.25
2023-05-04T08:14:52.673Z,14.67
2023-05-04T08:19:49.367Z,14.73
2023-05-04T08:24:47.701Z,14.70
2023-05-04T08:29:44.108Z,15.07
2023-05-04T08:34:40.524Z,14.88
2023-05-04T08:39:38.347Z,14.91
2023-05-04T08:44:36.461Z,14.83
2023-05-04T08:49:32.957Z,14.75
2023-05-04T08:54:29.926Z,15.20
2023-05-04T08:59:28.983Z,15.28
2023-05-04T09:04:29.352Z,15.07
2023-05-04T09:09:28.204Z,15.50
2023-05-04T09:14:33.054Z,16.41
2023-05-04T09:19:33.672Z,16.29
2023-05-04T09:24:30.561Z,16.03
2023-05-04T09:29:26.900Z,15.83
2023-05-04T09:34:23.731Z,15.94
2023-05-04T09:39:20.956Z,16.11
2023-05-04T09:44:23.072Z,17.13
2023-05-04T09:49:21.232Z,17.30
2023-05-04T09:54:18.812Z,17.87
2023-05-04T09:59:15.809Z,18.07
2023-05-04T10:04:13.007Z,18.76
2023-05-04T10:09:10.519Z,19.06
2023-05-04T10:14:08.406Z,19.36
2023-05-04T10:19:30.097Z,20.23
2023-05-04T10:24:47.283Z,20.51
2023-05-04T10:29:49.452Z,21.04
2023-05-04T10:34:45.876Z,21.20
2023-05-04T10:39:51.234Z,20.59
2023-05-04T10:44:53.373Z,20.94
2023-05-04T10:50:01.265Z,20.66
2023-05-04T10:55:00.784Z,20.76
2023-05-04T10:59:58.557Z,20.90
2023-05-04T11:05:04.156Z,21.13
2023-05-04T11:10:01.406Z,20.88
2023-05-04T11:15:10.632Z,20.58
2023-05-04T11:20:07.924Z,21.32
2023-05-04T11:25:05.036Z,21.28
2023-05-04T11:30:03.095Z,21.05
2023-05-04T11:34:59.443Z,21.45
2023-05-04T11:39:56.753Z,21.72
2023-05-04T11:44:54.658Z,21.32
2023-05-04T11:49:51.220Z,21.48
2023-05-04T11:54:56.803Z,21.54
2023-05-04T11:59:53.207Z,21.42
2023-05-04T12:04:49.819Z,21.46
2023-05-04T12:09:49.776Z,21.86
2023-05-04T12:14:50.251Z,21.64
2023-05-04T12:19:54.233Z,22.05
2023-05-04T12:24:51.059Z,22.53
2023-05-04T12:29:47.404Z,22.05
2023-05-04T12:34:43.729Z,22.11
2023-05-04T12:39:40.235Z,22.31
2023-05-04T12:44:36.777Z,22.33
2023-05-04T12:49:33.124Z,22.76
2023-05-04T12:54:29.459Z,22.92
2023-05-04T12:59:26.480Z,22.73
2023-05-04T13:04:23.643Z,22.54
2023-05-04T13:09:20.681Z,22.35
2023-05-04T13:14:17.001Z,22.48
2023-05-04T13:19:13.357Z,22.31
2023-05-04T13:24:11.241Z,22.21
2023-05-04T13:29:07.738Z,22.21
2023-05-04T13:34:04.316Z,22.24
2023-05-04T13:39:00.731Z,22.03
2023-05-04T13:43:57.320Z,21.95
2023-05-04T13:48:55.713Z,22.44
2023-05-04T13:53:53.268Z,22.50
2023-05-04T13:58:49.786Z,22.87
2023-05-04T14:03:46.630Z,23.17
2023-05-04T14:08:43.009Z,22.83
2023-05-04T14:13:39.347Z,23.01
2023-05-04T14:18:35.695Z,22.95
2023-05-04T14:23:32.023Z,23.02
2023-05-04T14:28:28.456Z,22.82
2023-05-04T14:33:24.909Z,23.45
2023-05-04T14:38:21.277Z,23.48
2023-05-04T14:43:17.690Z,23.26
2023-05-04T14:48:14.383Z,23.17
2023-05-04T14:53:10.951Z,23.34
2023-05-04T14:58:10.580Z,23.35
2023-05-04T15:03:07.765Z,23.02
2023-05-04T15:08:04.368Z,23.28
2023-05-04T15:13:01.627Z,23.12
2023-05-04T15:17:58.162Z,23.25
2023-05-04T15:22:54.578Z,23.27
2023-05-04T15:27:50.950Z,23.43
2023-05-04T15:32:48.221Z,23.50
2023-05-04T15:37:44.533Z,24.06
2023-05-04T15:42:41.193Z,24.13
2023-05-04T15:47:37.782Z,24.28
2023-05-04T15:52:34.459Z,24.23
2023-05-04T15:57:30.815Z,24.26
2023-05-04T16:02:27.816Z,24.35
2023-05-04T16:07:24.624Z,24.10
2023-05-04T16:12:21.342Z,23.89
2023-05-04T16:17:17.794Z,23.63
2023-05-04T16:22:14.687Z,23.94
2023-05-04T16:27:11.043Z,24.13
2023-05-04T16:32:08.285Z,24.59
2023-05-04T16:37:04.663Z,24.72
2023-05-04T16:42:02.282Z,25.21
2023-05-04T16:46:59.691Z,26.16
2023-05-04T16:51:56.191Z,26.26
2023-05-04T16:56:52.776Z,27.21
2023-05-04T17:01:49.301Z,27.65
2023-05-04T17:06:45.953Z,26.70
2023-05-04T17:11:42.406Z,25.60
2023-05-04T17:16:39.128Z,24.47
2023-05-04T17:21:35.756Z,23.85
2023-05-04T17:26:32.162Z,23.50
2023-05-04T17:31:28.694Z,22.54
2023-05-04T17:36:25.276Z,21.97
2023-05-04T17:41:21.768Z,21.23
2023-05-04T17:46:18.226Z,20.64
2023-05-04T17:51:15.137Z,20.23
2023-05-04T17:56:11.622Z,19.76
2023-05-04T18:01:08.045Z,19.45
2023-05-04T18:06:06.177Z,19.20
2023-05-04T18:11:02.570Z,18.90
2023-05-04T18:15:58.995Z,18.62
2023-05-04T18:20:58.596Z,18.23
2023-05-04T18:25:54.938Z,17.91
2023-05-04T18:30:51.426Z,17.68
2023-05-04T18:35:47.868Z,17.61
2023-05-04T18:40:44.357Z,17.30
2023-05-04T18:45:40.759Z,17.08
2023-05-04T18:50:37.536Z,16.87
2023-05-04T18:55:33.983Z,16.63
2023-05-04T19:00:30.564Z,16.58
2023-05-04T19:05:26.973Z,16.38
2023-05-04T19:10:23.345Z,16.30
2023-05-04T19:15:21.224Z,16.04
2023-05-04T19:20:19.312Z,15.99
2023-05-04T19:25:27.074Z,15.69
2023-05-04T19:30:29.829Z,15.57
2023-05-04T19:35:26.851Z,15.41
2023-05-04T19:40:23.532Z,15.23
2023-05-04T19:45:20.005Z,15.19
2023-05-04T19:50:16.893Z,14.90
2023-05-04T19:55:13.473Z,14.76
2023-05-04T20:00:10.775Z,14.73
2023-05-04T20:05:07.642Z,14.71
2023-05-04T20:10:05.324Z,14.59
2023-05-04T20:15:01.920Z,14.47
2023-05-04T20:19:58.299Z,14.43
2023-05-04T20:24:54.957Z,14.34
2023-05-04T20:29:51.439Z,14.23
2023-05-04T20:34:47.811Z,14.27
2023-05-04T20:39:44.187Z,14.34
2023-05-04T20:44:40.550Z,14.46
2023-05-04T20:49:36.938Z,14.71
2023-05-04T20:54:33.451Z,14.80
2023-05-04T20:59:29.833Z,14.80
2023-05-04T21:04:26.333Z,14.76
2023-05-04T21:09:22.721Z,14.77
2023-05-04T21:14:19.442Z,14.77
2023-05-04T21:19:16.481Z,14.76
2023-05-04T21:24:13.617Z,14.70
2023-05-04T21:29:13.297Z,14.66
2023-05-04T21:34:10.300Z,14.62
2023-05-04T21:39:06.863Z,14.56
2023-05-04T21:44:03.472Z,14.49
2023-05-04T21:48:59.843Z,14.42
2023-05-04T21:53:56.240Z,14.33
2023-05-04T21:58:52.892Z,14.25
2023-05-04T22:03:49.345Z,14.13
2023-05-04T22:08:45.765Z,14.12
2023-05-04T22:13:42.097Z,14.12
2023-05-04T22:18:38.453Z,14.04
2023-05-04T22:23:34.820Z,13.92
2023-05-04T22:28:31.190Z,13.98
2023-05-04T22:33:27.625Z,13.99
2023-05-04T22:38:24.016Z,13.83
2023-05-04T22:43:20.393Z,13.50
2023-05-04T22:48:16.813Z,13.42
2023-05-04T22:53:14.673Z,13.42
2023-05-04T22:58:11.220Z,13.11
2023-05-04T23:03:08.041Z,13.00
2023-05-04T23:08:04.817Z,12.91
2023-05-04T23:13:01.307Z,12.80
2023-05-04T23:17:57.804Z,12.73
2023-05-04T23:22:54.236Z,12.60
2023-05-04T23:27:50.772Z,12.39
2023-05-04T23:32:47.283Z,12.22
2023-05-04T23:37:43.735Z,12.05
2023-05-04T23:42:40.100Z,11.89
2023-05-04T23:47:36.573Z,11.64
2023-05-04T23:52:33.069Z,11.55
2023-05-04T23:57:29.778Z,11.55
